Brereton, Illinois
Current Conditions -  °F | °C
As of 1:54 AM on Friday 28 Nov 2014 (Local Time) from KPIA Reporting Station
Overcast Overcast  
Wind Chill: 10°   Ceiling: 6500
Heat Index: 18°   Visibility: 10mi
Dew Point: 10°   Wind: 6mph
Humidity: 71%   Direction: 100°E
Pressure: 30.37"   Gusts: NA
Location:  40.5579°N, 89.9752°W
Report Text: KPIA 280754Z 10005KT 10SM OVC065 M08/M12 A3037 RMK AO2 SLP296 T10781122
Loading
Personal Weather Stations






























Interactive Weather Map New forecast layout! Learn more

10-Day Weather Forecast

Advertisements
Track Severe Weather on mobile